TimeMST,TemperatureF,Dew PointF,Humidity,Sea Level PressureIn,VisibilityMPH,Wind Direction,Wind SpeedMPH,Gust SpeedMPH,PrecipitationIn,Events,Conditions,WindDirDegrees,DateUTC
12:15 AM,30.2,21.2,69,30.34,10.0,Calm,Calm,-,N/A,,Clear,0,2012-11-07 07:15:00
12:35 AM,30.2,21.2,69,30.33,10.0,Calm,Calm,-,N/A,,Clear,0,2012-11-07 07:35:00
12:55 AM,30.2,21.2,69,30.33,10.0,ESE,3.5,-,N/A,,Clear,120,2012-11-07 07:55:00
1:15 AM,30.2,21.2,69,30.33,10.0,Calm,Calm,-,N/A,,Clear,0,2012-11-07 08:15:00
1:55 AM,28.4,19.4,69,30.33,10.0,Calm,Calm,-,N/A,,Clear,0,2012-11-07 08:55:00
2:15 AM,28.4,19.4,69,30.32,10.0,Calm,Calm,-,N/A,,Clear,0,2012-11-07 09:15:00
2:35 AM,26.6,19.4,74,30.32,10.0,Calm,Calm,-,N/A,,Clear,0,2012-11-07 09:35:00
2:55 AM,28.4,19.4,69,30.31,10.0,Calm,Calm,-,N/A,,Clear,0,2012-11-07 09:55:00
3:15 AM,26.6,19.4,74,30.31,10.0,Calm,Calm,-,N/A,,Clear,0,2012-11-07 10:15:00
3:35 AM,24.8,19.4,80,30.31,10.0,East,4.6,-,N/A,,Clear,90,2012-11-07 10:35:00
3:55 AM,24.8,19.4,80,30.31,10.0,ESE,3.5,-,N/A,,Clear,110,2012-11-07 10:55:00
4:15 AM,24.8,19.4,80,30.32,10.0,Calm,Calm,-,N/A,,Clear,0,2012-11-07 11:15:00
4:35 AM,24.8,19.4,80,30.32,10.0,Calm,Calm,-,N/A,,Clear,0,2012-11-07 11:35:00
4:55 AM,24.8,19.4,80,30.32,10.0,Calm,Calm,-,N/A,,Clear,0,2012-11-07 11:55:00
5:15 AM,23.0,19.4,86,30.32,10.0,East,3.5,-,N/A,,Clear,100,2012-11-07 12:15:00
5:35 AM,23.0,17.6,80,30.32,10.0,Calm,Calm,-,N/A,,Clear,0,2012-11-07 12:35:00
5:55 AM,23.0,17.6,80,30.32,10.0,Calm,Calm,-,N/A,,Clear,0,2012-11-07 12:55:00
6:15 AM,21.2,17.6,86,30.32,10.0,East,3.5,-,N/A,,Clear,90,2012-11-07 13:15:00
6:35 AM,21.2,17.6,86,30.32,10.0,Calm,Calm,-,N/A,,Clear,0,2012-11-07 13:35:00
6:50 AM,21.2,17.6,86,30.32,10.0,Calm,Calm,-,N/A,,Partly Cloudy,0,2012-11-07 13:50:00
7:50 AM,24.8,19.4,80,30.33,10.0,Calm,Calm,-,N/A,,Partly Cloudy,0,2012-11-07 14:50:00
8:59 AM,32.0,19.4,60,30.31,10.0,Calm,Calm,-,N/A,,Clear,0,2012-11-07 15:59:00
9:59 AM,37.4,21.2,52,30.28,10.0,Calm,Calm,-,N/A,,Clear,0,2012-11-07 16:59:00
10:47 AM,42.8,21.2,42,30.25,10.0,Calm,Calm,-,N/A,,Partly Cloudy,0,2012-11-07 17:47:00
11:52 AM,51.8,19.4,28,30.18,10.0,Calm,Calm,-,N/A,,Clear,0,2012-11-07 18:52:00
1:55 PM,64.4,17.6,16,30.08,10.0,Calm,Calm,-,N/A,,Clear,0,2012-11-07 20:55:00
2:45 PM,66.2,14.0,13,30.06,10.0,WSW,17.3,-,N/A,,Clear,250,2012-11-07 21:45:00
3:46 PM,64.4,15.8,15,30.07,10.0,WSW,15.0,21.9,N/A,,Clear,240,2012-11-07 22:46:00
4:46 PM,60.8,17.6,19,30.07,10.0,SSW,11.5,-,N/A,,Clear,200,2012-11-07 23:46:00
5:50 PM,53.6,17.6,24,30.08,10.0,SW,4.6,-,N/A,,Clear,220,2012-11-08 00:50:00
6:46 PM,46.4,15.8,29,30.09,10.0,ENE,5.8,-,N/A,,Clear,70,2012-11-08 01:46:00
7:15 PM,44.6,17.6,34,30.09,10.0,East,9.2,-,N/A,,Clear,80,2012-11-08 02:15:00
7:35 PM,42.8,17.6,36,30.09,10.0,East,8.1,-,N/A,,Clear,90,2012-11-08 02:35:00
7:55 PM,42.8,17.6,36,30.10,10.0,East,8.1,-,N/A,,Clear,90,2012-11-08 02:55:00
8:15 PM,42.8,17.6,36,30.10,10.0,ESE,5.8,-,N/A,,Clear,110,2012-11-08 03:15:00
8:35 PM,39.2,17.6,42,30.10,10.0,ESE,5.8,-,N/A,,Clear,110,2012-11-08 03:35:00
8:55 PM,39.2,17.6,42,30.11,10.0,ESE,5.8,-,N/A,,Clear,110,2012-11-08 03:55:00
9:15 PM,37.4,17.6,45,30.11,10.0,East,6.9,-,N/A,,Clear,100,2012-11-08 04:15:00
9:35 PM,37.4,17.6,45,30.11,10.0,ESE,4.6,-,N/A,,Clear,120,2012-11-08 04:35:00
9:55 PM,37.4,17.6,45,30.11,10.0,ENE,3.5,-,N/A,,Clear,70,2012-11-08 04:55:00
10:15 PM,35.6,17.6,48,30.11,10.0,Calm,Calm,-,N/A,,Clear,0,2012-11-08 05:15:00
10:35 PM,35.6,17.6,48,30.11,10.0,East,3.5,-,N/A,,Clear,100,2012-11-08 05:35:00
10:55 PM,33.8,17.6,52,30.11,10.0,Calm,Calm,-,N/A,,Clear,0,2012-11-08 05:55:00
11:15 PM,33.8,17.6,52,30.10,10.0,SE,3.5,-,N/A,,Clear,140,2012-11-08 06:15:00
11:35 PM,32.0,19.4,60,30.10,10.0,Calm,Calm,-,N/A,,Clear,0,2012-11-08 06:35:00